Terminal Aerodrome Forecast
Issued by NWS

Home | Current Version | Previous Version | Text Only | Print | Product List | Glossary On
Versions: 1 2 3 4 5 6 7 8 9 10 11 12 13 14 15
000
FTUS44 KLZK 012300
TAFBPK
TAF
KBPK 012330Z 0200/0224 18006KT P6SM SCT040
     FM020300 15008KT P6SM VCSH SCT035 BKN120
     FM020800 16007KT P6SM VCTS SCT025 BKN040CB PROB30 0210/0216 4SM
      -TSRA BR BKN025CB
     FM021700 22009KT P6SM BKN070=

USA.gov is the U.S. government's official web portal to all federal, state and local government web resources and services.